createdAt,value
2023-01-03T00:02:03.446Z,0.35
2023-01-03T00:07:43.245Z,0.65
2023-01-03T00:13:08.248Z,1.05
2023-01-03T00:18:32.328Z,0.63
2023-01-03T00:24:00.231Z,0.50
2023-01-03T00:29:25.301Z,1.55
2023-01-03T00:34:54.248Z,1.05
2023-01-03T00:40:22.264Z,1.33
2023-01-03T00:45:47.297Z,0.88
2023-01-03T00:51:13.263Z,1.60
2023-01-03T00:56:43.280Z,1.05
2023-01-03T01:02:09.464Z,0.82
2023-01-03T01:07:34.282Z,1.83
2023-01-03T01:13:01.305Z,1.42
2023-01-03T01:18:26.301Z,1.05
2023-01-03T01:23:52.280Z,0.85
2023-01-03T01:29:21.293Z,0.82
2023-01-03T01:34:46.266Z,0.88
2023-01-03T01:40:17.273Z,1.52
2023-01-03T01:45:52.353Z,0.60
2023-01-03T01:51:19.312Z,1.00
2023-01-03T01:56:47.404Z,1.50
2023-01-03T02:02:16.462Z,1.45
2023-01-03T02:07:41.315Z,0.55
2023-01-03T02:13:17.300Z,1.13
2023-01-03T02:18:57.289Z,2.30
2023-01-03T02:24:59.382Z,0.70
2023-01-03T02:30:46.403Z,0.52
2023-01-03T02:36:19.327Z,0.73
2023-01-03T02:41:55.288Z,0.57
2023-01-03T02:47:31.375Z,0.50
2023-01-03T02:53:00.321Z,1.05
2023-01-03T02:58:28.335Z,0.95
2023-01-03T03:03:57.425Z,1.08
2023-01-03T03:09:21.347Z,0.57
2023-01-03T03:14:52.352Z,0.98
2023-01-03T03:20:41.332Z,1.73
2023-01-03T03:26:10.331Z,0.90
2023-01-03T03:31:39.413Z,0.93
2023-01-03T03:37:09.355Z,1.10
2023-01-03T03:42:51.329Z,1.77
2023-01-03T03:48:23.354Z,1.10
2023-01-03T03:53:54.372Z,1.23
2023-01-03T03:59:20.367Z,1.37
2023-01-03T04:04:53.357Z,1.35
2023-01-03T04:10:26.414Z,2.50
2023-01-03T04:15:51.404Z,1.20
2023-01-03T04:21:20.763Z,2.63
2023-01-03T04:26:48.396Z,1.85
2023-01-03T04:32:13.528Z,1.38
2023-01-03T04:37:37.361Z,1.65
2023-01-03T04:43:17.376Z,0.90
2023-01-03T04:48:41.382Z,3.45
2023-01-03T04:54:07.397Z,1.20
2023-01-03T04:59:34.402Z,1.60
2023-01-03T05:04:59.361Z,2.08
2023-01-03T05:10:24.457Z,2.25
2023-01-03T05:15:52.397Z,1.45
2023-01-03T05:21:37.389Z,1.50
2023-01-03T05:27:02.408Z,1.52
2023-01-03T05:32:31.446Z,1.75
2023-01-03T05:37:56.442Z,1.85
2023-01-03T05:43:21.395Z,1.23
2023-01-03T05:48:49.383Z,1.55
2023-01-03T05:54:13.408Z,1.80
2023-01-03T05:59:38.408Z,1.75
2023-01-03T06:05:06.529Z,3.00
2023-01-03T06:10:31.390Z,3.30
2023-01-03T06:16:18.926Z,1.67
2023-01-03T06:21:49.394Z,1.40
2023-01-03T06:27:13.412Z,1.30
2023-01-03T06:32:39.422Z,1.77
2023-01-03T06:38:06.471Z,2.15
2023-01-03T06:43:31.438Z,1.60
2023-01-03T06:49:23.311Z,1.40
2023-01-03T06:54:49.361Z,2.00
2023-01-03T07:00:14.318Z,2.30
2023-01-03T07:05:42.301Z,2.00
2023-01-03T07:11:00.312Z,2.47
2023-01-03T07:16:29.497Z,2.60
2023-01-03T07:21:57.336Z,1.92
2023-01-03T07:27:21.319Z,1.80
2023-01-03T07:32:46.340Z,2.78
2023-01-03T07:38:13.346Z,3.72
2023-01-03T07:43:47.313Z,2.10
2023-01-03T07:49:18.350Z,3.03
2023-01-03T07:54:46.344Z,1.90
2023-01-03T08:00:10.350Z,3.88
2023-01-03T08:05:35.355Z,2.10
2023-01-03T08:11:15.333Z,1.92
2023-01-03T08:16:40.448Z,1.63
2023-01-03T08:22:05.361Z,4.13
2023-01-03T08:27:33.355Z,1.77
2023-01-03T08:32:58.359Z,1.98
2023-01-03T08:38:28.379Z,2.50
2023-01-03T08:43:58.352Z,2.47
2023-01-03T08:49:30.396Z,1.75
2023-01-03T08:54:55.370Z,2.40
2023-01-03T09:00:24.586Z,1.98
2023-01-03T09:05:49.401Z,1.83
2023-01-03T09:11:15.389Z,1.85
2023-01-03T09:16:48.785Z,1.83
2023-01-03T09:22:13.512Z,2.08
2023-01-03T09:27:38.369Z,1.23
2023-01-03T09:33:08.420Z,3.75
2023-01-03T09:38:33.401Z,2.72
2023-01-03T09:44:01.420Z,1.98
2023-01-03T09:49:35.422Z,1.17
2023-01-03T09:55:13.410Z,1.40
2023-01-03T10:00:55.451Z,1.30
2023-01-03T10:06:36.377Z,1.63
2023-01-03T10:12:08.398Z,1.23
2023-01-03T10:17:44.440Z,3.15
2023-01-03T10:23:12.447Z,2.22
2023-01-03T10:28:45.439Z,1.10
2023-01-03T10:34:09.418Z,2.78
2023-01-03T10:39:44.225Z,2.28
2023-01-03T10:45:17.422Z,1.00
2023-01-03T10:50:47.402Z,1.45
2023-01-03T10:56:17.403Z,0.60
2023-01-03T11:01:43.491Z,1.20
2023-01-03T11:07:28.470Z,0.77
2023-01-03T11:12:56.444Z,1.30
2023-01-03T11:18:33.555Z,1.00
2023-01-03T11:24:22.601Z,1.08
2023-01-03T11:30:10.476Z,1.30
2023-01-03T11:35:49.444Z,0.63
2023-01-03T11:41:27.453Z,0.90
2023-01-03T11:47:07.438Z,1.13
2023-01-03T11:52:45.435Z,1.40
2023-01-03T11:58:28.462Z,1.65
2023-01-03T12:04:17.510Z,1.20
2023-01-03T12:09:50.502Z,0.73
2023-01-03T12:15:20.463Z,1.58
2023-01-03T12:21:00.504Z,0.93
2023-01-03T12:26:26.509Z,0.85
2023-01-03T12:31:56.603Z,0.90
2023-01-03T12:37:28.538Z,0.45
2023-01-03T12:43:01.538Z,0.52
2023-01-03T12:48:48.527Z,1.55
2023-01-03T12:54:31.488Z,0.93
2023-01-03T13:00:33.462Z,1.40
2023-01-03T13:06:02.680Z,3.53
2023-01-03T13:11:37.517Z,1.00
2023-01-03T13:17:03.505Z,1.38
2023-01-03T13:22:53.488Z,1.77
2023-01-03T13:28:42.497Z,0.73
2023-01-03T13:34:11.502Z,0.40
2023-01-03T13:39:48.501Z,1.58
2023-01-03T13:45:42.483Z,1.20
2023-01-03T13:51:35.603Z,1.30
2023-01-03T13:57:19.504Z,0.80
2023-01-03T14:03:16.714Z,0.28
2023-01-03T14:09:10.492Z,0.25
2023-01-03T14:14:40.536Z,0.50
2023-01-03T14:20:07.514Z,2.30
2023-01-03T14:25:46.542Z,0.63
2023-01-03T14:31:17.539Z,0.90
2023-01-03T14:36:54.529Z,2.67
2023-01-03T14:42:23.603Z,0.80
2023-01-03T14:47:50.526Z,1.00
2023-01-03T14:53:17.554Z,0.88
2023-01-03T14:58:51.526Z,1.92
2023-01-03T15:04:16.573Z,1.20
2023-01-03T15:09:44.608Z,1.52
2023-01-03T15:15:11.542Z,1.63
2023-01-03T15:20:45.564Z,1.92
2023-01-03T15:26:09.564Z,1.63
2023-01-03T15:31:43.608Z,1.88
2023-01-03T15:37:12.543Z,1.20
2023-01-03T15:42:58.279Z,0.73
2023-01-03T15:48:32.577Z,1.90
2023-01-03T15:53:57.568Z,1.00
2023-01-03T15:59:26.563Z,2.92
2023-01-03T16:04:54.567Z,1.80
2023-01-03T16:10:21.779Z,1.27
2023-01-03T16:15:50.596Z,1.05
2023-01-03T16:21:18.589Z,3.17
2023-01-03T16:26:43.596Z,1.42
2023-01-03T16:32:07.663Z,2.40
2023-01-03T16:37:35.588Z,1.73
2023-01-03T16:43:01.819Z,1.30
2023-01-03T16:48:28.576Z,1.40
2023-01-03T16:53:57.572Z,1.40
2023-01-03T16:59:24.715Z,1.60
2023-01-03T17:04:48.609Z,1.40
2023-01-03T17:10:17.700Z,1.63
2023-01-03T17:15:42.600Z,1.85
2023-01-03T17:21:10.639Z,1.77
2023-01-03T17:26:39.641Z,1.40
2023-01-03T17:32:04.619Z,1.20
2023-01-03T17:37:51.519Z,1.88
2023-01-03T17:43:28.604Z,1.85
2023-01-03T17:49:05.605Z,3.38
2023-01-03T17:54:35.701Z,1.92
2023-01-03T18:00:02.601Z,2.33
2023-01-03T18:05:31.623Z,2.10
2023-01-03T18:10:59.612Z,5.03
2023-01-03T18:16:30.655Z,2.15
2023-01-03T18:21:55.613Z,2.37
2023-01-03T18:27:21.644Z,2.35
2023-01-03T18:32:50.659Z,1.42
2023-01-03T18:38:15.687Z,1.77
2023-01-03T18:43:40.709Z,2.08
2023-01-03T18:49:08.630Z,2.47
2023-01-03T18:54:35.650Z,1.58
2023-01-03T19:00:00.619Z,1.50
2023-01-03T19:05:27.655Z,2.33
2023-01-03T19:10:52.679Z,2.50
2023-01-03T19:16:16.765Z,2.53
2023-01-03T19:21:45.609Z,1.85
2023-01-03T19:27:12.674Z,3.00
2023-01-03T19:32:39.673Z,3.83
2023-01-03T19:38:07.654Z,1.73
2023-01-03T19:43:32.664Z,2.97
2023-01-03T19:48:56.683Z,2.35
2023-01-03T19:54:24.669Z,1.52
2023-01-03T19:59:51.691Z,2.08
2023-01-03T20:05:24.690Z,2.15
2023-01-03T20:10:53.682Z,2.67
2023-01-03T20:16:19.691Z,2.97
2023-01-03T20:21:48.698Z,4.13
2023-01-03T20:27:21.723Z,2.72
2023-01-03T20:32:45.710Z,2.03
2023-01-03T20:38:10.673Z,1.85
2023-01-03T20:43:38.677Z,3.28
2023-01-03T20:49:06.719Z,2.70
2023-01-03T20:54:30.705Z,2.65
2023-01-03T20:59:58.735Z,2.50
2023-01-03T21:05:23.718Z,1.80
2023-01-03T21:10:50.702Z,2.92
2023-01-03T21:16:18.711Z,2.85
2023-01-03T21:21:43.698Z,1.75
2023-01-03T21:27:08.740Z,3.72
2023-01-03T21:32:39.733Z,2.83
2023-01-03T21:38:22.707Z,2.47
2023-01-03T21:43:47.734Z,2.92
2023-01-03T21:49:14.716Z,3.22
2023-01-03T21:54:41.738Z,2.10
2023-01-03T22:00:05.738Z,2.83
2023-01-03T22:05:33.725Z,2.78
2023-01-03T22:10:57.745Z,3.10
2023-01-03T22:16:22.807Z,3.33
2023-01-03T22:21:49.744Z,3.13
2023-01-03T22:27:14.754Z,1.95
2023-01-03T22:32:39.764Z,3.15
2023-01-03T22:38:07.746Z,3.22
2023-01-03T22:43:31.724Z,3.40
2023-01-03T22:48:57.758Z,3.10
2023-01-03T22:54:24.736Z,3.97
2023-01-03T22:59:55.754Z,3.83
2023-01-03T23:05:21.750Z,2.72
2023-01-03T23:10:48.754Z,3.72
2023-01-03T23:16:14.846Z,3.13
2023-01-03T23:21:38.777Z,3.67
2023-01-03T23:27:12.769Z,4.18
2023-01-03T23:32:37.779Z,3.38
2023-01-03T23:38:04.765Z,4.40
2023-01-03T23:43:32.806Z,4.78
2023-01-03T23:48:57.762Z,5.38
2023-01-03T23:54:22.774Z,4.53
2023-01-03T23:59:49.799Z,5.03
